< < Back
Terminal Aerodrome Forecast


Current Version              Previous Versions:   1  2  3  4  5  6  7  8  9  

Terminal Aerodrome Forecast

380
FTUS44 KBMX 201100
TAFANB
TAF
KANB 201136Z 2012/2112 02004KT 5SM BR BKN005 OVC025
      TEMPO 2012/2014 2SM -RA BR OVC005
     FM201500 01004KT P6SM BKN030
     FM202300 03003KT P6SM BKN060
     FM210900 03003KT 5SM BR BKN010=

Latest METAR

496
SAUS70 KWBC 201700 RRC
MTRANB
METAR KANB 201653Z AUTO 00000KT 4SM BR OVC006 07/05 A3023 RMK AO2 SLP243
T00670050


USA.gov is the U.S. government's official web portal to all federal, state and local government web resources and services.